Latest Weather Observations for Walpole North

IDW60801

Issued at 12:35 pm WST Monday 24 November 2014 (issued every 30 minutes, with the page automatically refreshed every 10 minutes)

About weather observations | Map of weather stations | Latest weather observations for WA | Other Formats
Station Details ID: 009998 Name: NORTH WALPOLE Lat: -34.95 Lon: 116.72 Height: 73.0 m
Data from the previous 72 hours. | See also: Recent months at Walpole North
Date/Time
WST
Temp
°C
App
Temp
°C
Dew
Point
Rel
Hum
%
Delta-T
°C
Wind Press
QNH
hPa
Press
MSL
hPa
Rain
since 9 am
mm
Dir
 
Spd
km/h
Gust
km/h
Spd
kts
Gust
kts
24/12:30pm 17.8 14.8 9.4 58 4.4 S 15 28 8 15 1023.0 1022.9 0.0
24/12:00pm 17.9 15.0 9.5 58 4.4 S 15 24 8 13 1023.2 1023.1 0.0
24/11:30am 17.8 14.8 9.4 58 4.4 S 15 26 8 14 1023.4 1023.3 0.0
24/11:00am 17.4 14.7 9.1 58 4.3 S 13 22 7 12 1023.5 1023.4 0.0
24/10:30am 16.8 13.8 7.7 55 4.6 SSW 13 20 7 11 1023.7 1023.6 0.0
24/10:00am 16.2 13.6 6.3 52 4.8 SW 9 17 5 9 1023.9 1023.8 0.0
24/09:30am 16.5 13.6 6.6 52 4.9 S 11 20 6 11 1024.0 1023.9 0.0
24/09:00am 15.6 13.2 6.9 56 4.3 SSW 9 19 5 10 1024.1 1024.0 0.0
24/08:30am 15.3 13.6 7.6 60 3.8 S 6 11 3 6 1024.1 1024.0 0.0
24/08:00am 14.9 14.5 8.4 65 3.3 CALM 0 0 0 0 1024.0 1023.9 0.0
24/07:30am 14.5 14.0 9.3 71 2.7 S 2 7 1 4 1023.8 1023.7 0.0
24/07:00am 12.8 12.9 10.0 83 1.4 CALM 0 0 0 0 1023.5 1023.4 0.0
24/06:30am 12.3 12.4 10.0 86 1.2 CALM 0 0 0 0 1023.4 1023.3 0.0
24/06:00am 11.5 11.3 9.1 85 1.2 WSW 0 0 0 0 1023.1 1023.0 0.0
24/05:30am 11.1 10.7 8.3 83 1.4 CALM 0 0 0 0 1022.9 1022.8 0.0
24/05:00am 11.0 10.5 7.9 81 1.5 CALM 0 0 0 0 1022.5 1022.4 0.0
24/04:30am 11.6 11.0 7.5 76 2.0 CALM 0 0 0 0 1022.2 1022.1 0.0
24/04:00am 11.4 10.8 7.5 77 1.9 CALM 0 0 0 0 1022.1 1022.0 0.0
24/03:30am 11.4 10.8 7.5 77 1.9 CALM 0 0 0 0 1021.9 1021.8 0.0
24/03:00am 11.6 11.0 7.5 76 2.0 CALM 0 0 0 0 1021.8 1021.7 0.0
24/02:30am 11.8 11.3 7.7 76 2.0 CALM 0 0 0 0 1021.6 1021.5 0.0
24/02:00am 11.8 11.3 7.7 76 2.0 CALM 0 0 0 0 1021.6 1021.5 0.0
24/01:30am 11.6 11.1 7.7 77 1.9 CALM 0 0 0 0 1021.7 1021.6 0.0
24/01:00am 11.8 11.3 7.7 76 2.0 CALM 0 0 0 0 1021.8 1021.7 0.0
24/12:30am 11.7 11.1 7.4 75 2.1 CALM 0 0 0 0 1021.7 1021.6 0.0
24/12:00am 11.6 10.9 7.1 74 2.2 WSW 0 0 0 0 1021.8 1021.7 0.0
 
Date/Time
WST
Temp
°C
App
Temp
°C
Dew
Point
Rel
Hum
%
Delta-T
°C
Wind Press
QNH
hPa
Press
MSL
hPa
Rain
since 9 am
mm
Dir
 
Spd
km/h
Gust
km/h
Spd
kts
Gust
kts
23/11:30pm 11.4 10.6 6.7 73 2.2 CALM 0 0 0 0 1021.9 1021.8 0.0
23/11:00pm 11.7 10.4 6.2 69 2.6 SW 2 7 1 4 1021.9 1021.8 0.0
23/10:30pm 12.3 9.9 7.2 71 2.5 SW 9 13 5 7 1021.8 1021.7 0.0
23/10:00pm 12.1 10.4 7.6 74 2.2 SW 6 13 3 7 1021.8 1021.7 0.0
23/09:30pm 11.9 11.3 7.2 73 2.3 CALM 0 7 0 4 1021.8 1021.7 0.0
23/09:00pm 12.1 10.1 7.0 71 2.4 WSW 7 9 4 5 1021.7 1021.6 0.0
23/08:30pm 12.1 10.0 6.6 69 2.6 WSW 7 11 4 6 1021.3 1021.2 0.0
23/08:00pm 12.5 10.1 6.8 68 2.7 WSW 9 15 5 8 1021.0 1020.9 0.0
23/07:30pm 12.5 10.0 6.5 67 2.9 WSW 9 11 5 6 1020.8 1020.7 0.0
23/07:00pm 12.5 9.9 5.9 64 3.1 WSW 9 15 5 8 1020.5 1020.3 0.0
23/06:30pm 13.9 11.2 7.2 64 3.3 SW 11 19 6 10 1020.1 1019.9 0.0
23/06:00pm 13.5 9.8 6.1 61 3.5 WSW 15 20 8 11 1019.5 1019.4 0.0
23/05:30pm 14.1 10.2 5.2 55 4.2 SW 15 22 8 12 1019.1 1019.0 0.0
23/05:00pm 14.4 10.3 6.0 57 4.0 WSW 17 30 9 16 1018.8 1018.7 0.0
23/04:30pm 14.5 10.0 6.3 58 4.0 SW 19 32 10 17 1018.6 1018.5 0.0
23/04:00pm 15.4 11.4 6.7 56 4.3 SW 17 28 9 15 1018.1 1018.0 0.0
23/03:30pm 15.2 11.5 8.0 62 3.6 WSW 17 28 9 15 1018.1 1018.0 0.0
23/03:00pm 15.1 10.2 6.9 58 4.0 WSW 22 30 12 16 1018.1 1018.0 0.0
23/02:30pm 16.7 11.5 5.3 47 5.5 W 22 35 12 19 1018.0 1017.9 0.0
23/02:00pm 16.1 10.9 5.7 50 5.0 WSW 22 39 12 21 1017.9 1017.8 0.0
23/01:30pm 16.2 12.1 6.1 51 4.9 WSW 17 28 9 15 1017.7 1017.6 0.0
23/01:00pm 15.8 10.6 5.4 50 5.0 WSW 22 33 12 18 1017.5 1017.4 0.0
23/12:30pm 15.5 9.6 5.7 52 4.7 WSW 26 43 14 23 1017.5 1017.4 0.0
23/12:00pm 15.9 10.7 7.4 57 4.2 WSW 24 39 13 21 1017.3 1017.2 0.0
23/11:30am 15.9 10.7 7.1 56 4.4 SW 24 39 13 21 1017.1 1017.0 0.0
23/11:00am 15.3 9.6 6.8 57 4.2 SW 26 41 14 22 1017.0 1016.9 0.0
23/10:30am 14.9 10.2 7.7 62 3.6 WSW 22 39 12 21 1016.8 1016.7 0.0
23/10:00am 14.7 10.3 7.3 61 3.6 WSW 20 32 11 17 1016.5 1016.4 0.0
23/09:30am 14.7 9.7 6.3 57 4.1 SW 22 37 12 20 1016.4 1016.3 0.0
23/09:00am 14.8 9.7 5.9 55 4.3 SW 22 43 12 23 1016.1 1016.0 0.6
23/08:30am 14.5 9.4 6.1 57 4.0 SW 22 41 12 22 1016.0 1015.9 0.6
23/08:00am 14.9 9.8 6.2 56 4.2 SW 22 35 12 19 1015.7 1015.6 0.6
23/07:30am 14.5 10.0 7.1 61 3.6 SW 20 33 11 18 1015.3 1015.2 0.6
23/07:00am 13.9 9.6 7.7 66 3.1 WSW 20 33 11 18 1014.8 1014.7 0.6
23/06:30am 13.4 8.7 7.8 69 2.8 WSW 22 41 12 22 1014.5 1014.4 0.6
23/06:00am 13.5 9.3 8.4 71 2.6 WSW 20 32 11 17 1013.9 1013.8 0.6
23/05:30am 13.3 8.5 8.8 74 2.3 SW 24 41 13 22 1013.3 1013.2 0.6
23/05:00am 13.5 9.3 8.1 70 2.7 WSW 20 35 11 19 1012.8 1012.7 0.6
23/04:30am 13.7 8.9 8.7 72 2.5 WSW 24 39 13 21 1012.4 1012.3 0.6
23/04:00am 13.4 9.8 10.0 80 1.8 WSW 19 30 10 16 1012.2 1012.1 0.6
23/03:30am 12.7 9.1 9.9 83 1.4 WSW 19 33 10 18 1011.9 1011.8 0.6
23/03:18am 12.9 6.9 10.1 83 1.4 WSW 32 41 17 22 1011.8 1011.7 0.6
23/03:00am 12.7 11.1 10.1 84 1.3 WNW 9 15 5 8 1011.6 1011.5 0.2
23/02:30am 12.3 10.3 10.0 86 1.2 WNW 11 20 6 11 1011.7 1011.6 0.2
23/02:00am 12.3 8.2 10.0 86 1.2 WSW 22 41 12 22 1011.8 1011.7 0.2
23/01:50am 12.6 7.5 10.5 87 1.1 WSW 28 48 15 26 1011.9 1011.8 0.2
23/01:30am 13.6 11.6 10.2 80 1.8 WNW 11 19 6 10 1011.4 1011.3 0.2
23/01:00am 13.3 10.5 10.1 81 1.7 NNW 15 20 8 11 1011.7 1011.6 0.2
23/12:30am 13.5 11.2 10.5 82 1.6 WNW 13 19 7 10 1011.9 1011.8 0.2
23/12:00am 13.7 11.0 10.5 81 1.7 NW 15 19 8 10 1012.0 1011.9 0.2
 
Date/Time
WST
Temp
°C
App
Temp
°C
Dew
Point
Rel
Hum
%
Delta-T
°C
Wind Press
QNH
hPa
Press
MSL
hPa
Rain
since 9 am
mm
Dir
 
Spd
km/h
Gust
km/h
Spd
kts
Gust
kts
22/11:30pm 13.8 11.5 10.6 81 1.7 W 13 24 7 13 1012.3 1012.2 0.2
22/11:00pm 13.6 11.5 11.1 85 1.3 W 13 22 7 12 1012.6 1012.5 0.2
22/10:30pm 13.5 11.0 11.2 86 1.2 W 15 26 8 14 1012.8 1012.7 0.2
22/10:00pm 13.1 11.7 10.8 86 1.2 WNW 9 15 5 8 1012.8 1012.7 0.2
22/09:30pm 13.5 10.5 10.5 82 1.6 NW 17 22 9 12 1012.7 1012.6 0.2
22/09:00pm 14.2 10.5 10.0 76 2.2 NW 20 26 11 14 1012.8 1012.7 0.2
22/08:30pm 14.4 12.0 10.0 75 2.3 WNW 13 24 7 13 1012.7 1012.6 0.2
22/08:00pm 14.4 11.9 9.8 74 2.4 W 13 22 7 12 1012.7 1012.6 0.2
22/07:30pm 14.3 10.4 9.5 73 2.5 W 20 30 11 16 1012.6 1012.5 0.2
22/07:00pm 15.0 12.1 9.6 70 2.8 W 15 26 8 14 1012.5 1012.4 0.2
22/06:30pm 15.2 11.3 9.6 69 2.9 WNW 20 35 11 19 1012.3 1012.2 0.2
22/06:00pm 15.5 11.2 8.0 61 3.8 W 20 39 11 21 1012.1 1012.0 0.2
22/05:30pm 16.4 11.9 8.4 59 4.1 WNW 22 32 12 17 1011.6 1011.5 0.2
22/05:00pm 16.0 12.4 9.7 66 3.3 W 19 32 10 17 1011.8 1011.7 0.2
22/04:30pm 16.3 12.7 10.4 68 3.1 W 20 33 11 18 1011.9 1011.8 0.2
22/04:00pm 18.0 13.0 9.6 58 4.4 W 26 37 14 20 1011.6 1011.5 0.2
22/03:30pm 17.7 13.1 9.6 59 4.3 W 24 39 13 21 1011.7 1011.6 0.2
22/03:00pm 18.3 14.8 10.9 62 4.0 W 20 30 11 16 1011.9 1011.8 0.2
22/02:30pm 16.9 12.7 9.8 63 3.7 W 22 44 12 24 1012.2 1012.1 0.2
22/02:00pm 17.4 12.7 9.1 58 4.3 WNW 24 39 13 21 1012.1 1012.0 0.2
22/01:30pm 17.9 13.2 9.3 57 4.5 W 24 39 13 21 1012.2 1012.1 0.2
22/01:00pm 17.9 13.3 9.5 58 4.4 WSW 24 35 13 19 1012.2 1012.1 0.2
22/12:30pm 17.9 13.6 9.5 58 4.4 W 22 35 12 19 1012.3 1012.2 0.2
22/12:00pm 18.4 14.8 9.7 57 4.6 W 19 37 10 20 1012.4 1012.3 0.2
22/11:30am 17.6 14.4 10.0 61 4.0 W 17 26 9 14 1012.4 1012.3 0.0
22/11:00am 16.7 13.0 9.4 62 3.8 WSW 19 28 10 15 1012.5 1012.4 0.0
22/10:30am 16.5 13.5 9.4 63 3.7 W 15 28 8 15 1012.5 1012.4 0.0
22/10:00am 16.8 13.6 10.0 64 3.6 WSW 17 28 9 15 1012.5 1012.4 0.0
22/09:30am 15.9 12.2 9.3 65 3.4 WSW 19 28 10 15 1012.4 1012.3 0.0
22/09:00am 15.7 11.8 9.6 67 3.2 SW 20 30 11 16 1012.4 1012.3 3.8
22/08:30am 15.2 13.5 12.5 84 1.5 W 13 20 7 11 1012.5 1012.4 3.8
22/08:00am 14.3 13.7 13.5 95 0.4 W 9 13 5 7 1012.4 1012.3 3.8
22/07:30am 13.5 12.8 13.3 99 0.1 W 9 15 5 8 1012.1 1012.0 3.8
22/07:00am 13.3 13.1 13.1 99 0.1 W 6 9 3 5 1011.9 1011.8 3.8
22/06:30am 13.0 12.2 12.8 99 0.1 WSW 9 17 5 9 1011.7 1011.6 3.8
22/06:00am 12.5 11.5 12.3 99 0.1 WNW 9 15 5 8 1011.3 1011.2 3.6
22/05:30am 12.3 11.6 12.1 99 0.1 WNW 7 9 4 5 1011.0 1010.9 3.4
22/05:00am 12.3 11.6 12.0 98 0.2 WNW 7 11 4 6 1010.8 1010.7 3.4
22/04:30am 12.3 10.4 11.7 96 0.3 WNW 13 19 7 10 1010.5 1010.4 3.0
22/04:00am 12.6 11.5 11.8 95 0.4 W 9 13 5 7 1010.2 1010.1 2.6
22/03:30am 12.4 11.2 11.6 95 0.4 W 9 19 5 10 1010.1 1010.0 2.6
22/03:00am 12.4 11.7 11.3 93 0.6 W 6 11 3 6 1010.0 1009.9 2.6
22/02:30am 12.7 11.0 11.3 91 0.7 NW 11 15 6 8 1009.9 1009.8 2.4
22/02:00am 13.0 11.3 11.2 89 1.0 WNW 11 15 6 8 1009.9 1009.8 1.8
22/01:30am 12.8 11.1 11.2 90 0.8 NW 11 15 6 8 1010.1 1010.0 1.8
22/01:00am 13.0 11.2 10.9 87 1.1 WNW 11 17 6 9 1010.3 1010.2 1.8
22/12:30am 13.5 12.0 10.7 83 1.5 NW 9 15 5 8 1010.1 1010.0 1.6
22/12:00am 13.5 11.5 10.3 81 1.7 NW 11 15 6 8 1010.3 1010.2 1.6
 
Date/Time
WST
Temp
°C
App
Temp
°C
Dew
Point
Rel
Hum
%
Delta-T
°C
Wind Press
QNH
hPa
Press
MSL
hPa
Rain
since 9 am
mm
Dir
 
Spd
km/h
Gust
km/h
Spd
kts
Gust
kts
21/11:30pm 14.1 12.4 11.1 82 1.6 WNW 11 19 6 10 1010.6 1010.5 1.6
21/11:00pm 13.9 12.6 11.4 85 1.3 W 9 17 5 9 1010.6 1010.5 1.6
21/10:30pm 13.8 12.1 11.3 85 1.3 W 11 17 6 9 1010.6 1010.5 1.6
21/10:00pm 13.7 11.6 11.0 84 1.4 WNW 13 17 7 9 1010.5 1010.4 1.6
21/09:30pm 13.8 11.6 12.2 90 0.9 WNW 15 20 8 11 1010.7 1010.6 1.6
21/09:00pm 13.5 11.8 12.6 94 0.5 NW 13 17 7 9 1010.8 1010.7 1.6
21/08:30pm 13.5 11.5 12.6 94 0.5 NW 15 20 8 11 1010.8 1010.7 1.6
21/08:00pm 13.4 11.2 12.1 92 0.7 NW 15 20 8 11 1010.6 1010.5 1.0
21/07:30pm 13.7 11.4 11.7 88 1.1 NW 15 17 8 9 1010.4 1010.3 0.8
21/07:00pm 14.0 12.3 11.3 84 1.4 W 11 20 6 11 1010.2 1010.1 0.8
21/06:30pm 14.7 12.4 11.7 82 1.6 W 15 30 8 16 1010.0 1009.9 0.8
21/06:00pm 14.9 13.8 13.1 89 1.0 W 11 20 6 11 1009.7 1009.6 0.8
21/05:30pm 14.5 13.4 13.0 91 0.8 WNW 11 13 6 7 1009.6 1009.5 0.8
21/05:00pm 14.2 12.0 12.2 88 1.1 W 15 26 8 14 1009.7 1009.6 0.8
21/04:30pm 15.6 13.3 13.1 85 1.4 W 17 26 9 14 1009.4 1009.3 0.8
21/04:00pm 15.5 13.5 14.0 91 0.9 W 17 24 9 13 1009.4 1009.3 0.8
21/03:30pm 14.7 11.5 13.2 91 0.8 W 22 39 12 21 1009.5 1009.4 0.8
21/03:00pm 15.0 11.3 11.6 80 1.8 W 22 32 12 17 1009.3 1009.2 0.4
21/02:30pm 19.2 14.8 11.7 62 4.1 WSW 26 35 14 19 1008.8 1008.6 0.2
21/02:00pm 18.4 14.2 11.2 63 3.9 WNW 24 43 13 23 1008.8 1008.6 0.2
21/01:30pm 18.9 15.2 12.6 67 3.5 W 24 41 13 22 1008.8 1008.6 0.0
21/01:00pm 16.7 11.8 11.4 71 2.9 W 28 48 15 26 1009.1 1009.0 0.0

Other Formats:

Comma delimited format used in spreadsheet applications
http://www.bom.gov.au/fwo/IDW60801/IDW60801.95647.axf

JavaScript Object Notation format (JSON) in row-major order
http://www.bom.gov.au/fwo/IDW60801/IDW60801.95647.json